sensor_id;sensor_type;location;lat;lon;timestamp;pressure;altitude;pressure_sealevel;temperature;humidity
18784;BME280;9520;50.954;6.968;2022-08-03T00:00:20;100972.34;;;30.88;36.72
18784;BME280;9520;50.954;6.968;2022-08-03T00:00:41;100976.75;;;30.89;36.74
18784;BME280;9520;50.954;6.968;2022-08-03T00:01:04;100971.47;;;30.87;36.73
18784;BME280;9520;50.954;6.968;2022-08-03T00:01:26;100979.66;;;30.87;36.79
18784;BME280;9520;50.954;6.968;2022-08-03T00:01:48;100978.63;;;30.88;36.43
18784;BME280;9520;50.954;6.968;2022-08-03T00:02:10;100976.94;;;30.87;36.58
18784;BME280;9520;50.954;6.968;2022-08-03T00:02:32;100982.38;;;30.87;36.92
18784;BME280;9520;50.954;6.968;2022-08-03T00:02:54;100985.09;;;30.87;36.97
18784;BME280;9520;50.954;6.968;2022-08-03T00:03:16;100978.78;;;30.87;36.68
18784;BME280;9520;50.954;6.968;2022-08-03T00:03:38;100976.75;;;30.89;36.72
18784;BME280;9520;50.954;6.968;2022-08-03T00:04:00;100974.91;;;30.89;37.04
18784;BME280;9520;50.954;6.968;2022-08-03T00:04:22;100983.25;;;30.88;36.80
18784;BME280;9520;50.954;6.968;2022-08-03T00:04:54;100976.94;;;30.87;37.03
18784;BME280;9520;50.954;6.968;2022-08-03T00:05:16;100976.22;;;30.85;36.70
18784;BME280;9520;50.954;6.968;2022-08-03T00:05:38;100975.50;;;30.83;37.24
18784;BME280;9520;50.954;6.968;2022-08-03T00:06:21;100973.91;;;30.81;37.05
18784;BME280;9520;50.954;6.968;2022-08-03T00:06:42;100972.19;;;30.80;37.12
18784;BME280;9520;50.954;6.968;2022-08-03T00:07:04;100976.09;;;30.77;37.12
18784;BME280;9520;50.954;6.968;2022-08-03T00:07:27;100975.78;;;30.80;37.50
18784;BME280;9520;50.954;6.968;2022-08-03T00:07:49;100968.63;;;30.79;36.90
18784;BME280;9520;50.954;6.968;2022-08-03T00:08:10;100976.97;;;30.78;37.44
18784;BME280;9520;50.954;6.968;2022-08-03T00:08:32;100972.63;;;30.75;37.16
18784;BME280;9520;50.954;6.968;2022-08-03T00:09:00;100973.81;;;30.73;37.26
18784;BME280;9520;50.954;6.968;2022-08-03T00:09:23;100967.50;;;30.72;36.96
18784;BME280;9520;50.954;6.968;2022-08-03T00:09:45;100974.66;;;30.73;37.23
18784;BME280;9520;50.954;6.968;2022-08-03T00:10:07;100974.94;;;30.70;37.16
18784;BME280;9520;50.954;6.968;2022-08-03T00:10:29;100972.22;;;30.70;37.37
18784;BME280;9520;50.954;6.968;2022-08-03T00:10:51;100969.63;;;30.69;37.26
18784;BME280;9520;50.954;6.968;2022-08-03T00:11:13;100967.06;;;30.67;37.59
18784;BME280;9520;50.954;6.968;2022-08-03T00:11:36;100972.53;;;30.67;37.42
18784;BME280;9520;50.954;6.968;2022-08-03T00:11:58;100953.59;;;30.56;37.29
18784;BME280;9520;50.954;6.968;2022-08-03T00:12:20;100963.78;;;30.64;37.49
18784;BME280;9520;50.954;6.968;2022-08-03T00:12:42;100977.25;;;30.65;37.67
18784;BME280;9520;50.954;6.968;2022-08-03T00:13:04;100965.47;;;30.65;37.47
18784;BME280;9520;50.954;6.968;2022-08-03T00:13:26;100967.22;;;30.66;37.42
18784;BME280;9520;50.954;6.968;2022-08-03T00:13:48;100969.06;;;30.65;37.64
18784;BME280;9520;50.954;6.968;2022-08-03T00:14:11;100970.06;;;30.64;37.60
18784;BME280;9520;50.954;6.968;2022-08-03T00:14:34;100970.06;;;30.64;38.00
18784;BME280;9520;50.954;6.968;2022-08-03T00:14:55;100974.69;;;30.64;37.77
18784;BME280;9520;50.954;6.968;2022-08-03T00:15:17;100970.06;;;30.64;37.49
18784;BME280;9520;50.954;6.968;2022-08-03T00:15:40;100974.38;;;30.57;37.71
18784;BME280;9520;50.954;6.968;2022-08-03T00:16:02;100967.94;;;30.58;37.31
18784;BME280;9520;50.954;6.968;2022-08-03T00:16:25;100965.22;;;30.58;37.34
18784;BME280;9520;50.954;6.968;2022-08-03T00:16:46;100971.53;;;30.59;37.38
18784;BME280;9520;50.954;6.968;2022-08-03T00:17:08;100966.09;;;30.59;37.67
18784;BME280;9520;50.954;6.968;2022-08-03T00:17:30;100963.19;;;30.60;37.67
18784;BME280;9520;50.954;6.968;2022-08-03T00:18:11;100976.13;;;30.58;37.64
18784;BME280;9520;50.954;6.968;2022-08-03T00:18:34;100970.66;;;30.58;37.68
18784;BME280;9520;50.954;6.968;2022-08-03T00:18:56;100955.91;;;30.51;37.90
18784;BME280;9520;50.954;6.968;2022-08-03T00:19:18;100966.91;;;30.59;37.53
18784;BME280;9520;50.954;6.968;2022-08-03T00:19:39;100975.09;;;30.59;37.43
18784;BME280;9520;50.954;6.968;2022-08-03T00:20:02;100966.09;;;30.59;37.86
18784;BME280;9520;50.954;6.968;2022-08-03T00:20:24;100964.50;;;30.56;37.81
18784;BME280;9520;50.954;6.968;2022-08-03T00:20:46;100969.22;;;30.54;37.75
18784;BME280;9520;50.954;6.968;2022-08-03T00:21:08;100964.63;;;30.55;37.72
18784;BME280;9520;50.954;6.968;2022-08-03T00:21:30;100966.50;;;30.54;37.66
18784;BME280;9520;50.954;6.968;2022-08-03T00:21:52;100967.34;;;30.55;37.84
18784;BME280;9520;50.954;6.968;2022-08-03T00:22:14;100966.66;;;30.53;37.65
18784;BME280;9520;50.954;6.968;2022-08-03T00:22:37;100965.66;;;30.54;37.62
18784;BME280;9520;50.954;6.968;2022-08-03T00:22:59;100965.66;;;30.54;38.08
18784;BME280;9520;50.954;6.968;2022-08-03T00:23:21;100960.63;;;30.49;37.78
18784;BME280;9520;50.954;6.968;2022-08-03T00:23:43;100955.47;;;30.46;37.99
18784;BME280;9520;50.954;6.968;2022-08-03T00:24:13;100969.94;;;30.47;37.74
18784;BME280;9520;50.954;6.968;2022-08-03T00:24:35;100964.59;;;30.45;37.72
18784;BME280;9520;50.954;6.968;2022-08-03T00:25:37;100960.59;;;30.39;37.88
18784;BME280;9520;50.954;6.968;2022-08-03T00:25:59;100964.19;;;30.40;37.63
18784;BME280;9520;50.954;6.968;2022-08-03T00:26:21;100968.94;;;30.38;37.99
18784;BME280;9520;50.954;6.968;2022-08-03T00:26:43;100954.44;;;30.37;38.33
18784;BME280;9520;50.954;6.968;2022-08-03T00:27:05;100961.75;;;30.37;38.25
18784;BME280;9520;50.954;6.968;2022-08-03T00:27:27;100958.31;;;30.35;38.24
18784;BME280;9520;50.954;6.968;2022-08-03T00:27:53;100965.19;;;30.29;38.06
18784;BME280;9520;50.954;6.968;2022-08-03T00:28:16;100962.03;;;30.15;38.46
18784;BME280;9520;50.954;6.968;2022-08-03T00:28:38;100963.47;;;30.19;38.27
18784;BME280;9520;50.954;6.968;2022-08-03T00:29:00;100961.31;;;30.22;38.47
18784;BME280;9520;50.954;6.968;2022-08-03T00:29:24;100959.47;;;30.23;38.43
18784;BME280;9520;50.954;6.968;2022-08-03T00:29:46;100957.88;;;30.20;38.09
18784;BME280;9520;50.954;6.968;2022-08-03T00:30:20;100962.63;;;30.28;38.30
18784;BME280;9520;50.954;6.968;2022-08-03T00:30:47;100966.19;;;30.28;38.38
18784;BME280;9520;50.954;6.968;2022-08-03T00:31:10;100962.31;;;30.31;38.24
18784;BME280;9520;50.954;6.968;2022-08-03T00:31:34;100956.00;;;30.30;38.10
18784;BME280;9520;50.954;6.968;2022-08-03T00:32:13;100962.31;;;30.31;38.43
18784;BME280;9520;50.954;6.968;2022-08-03T00:32:37;100963.31;;;30.30;38.13
18784;BME280;9520;50.954;6.968;2022-08-03T00:33:05;100960.59;;;30.30;38.10
18784;BME280;9520;50.954;6.968;2022-08-03T00:33:28;100957.00;;;30.29;38.14
18784;BME280;9520;50.954;6.968;2022-08-03T00:34:10;100958.03;;;30.28;38.46
18784;BME280;9520;50.954;6.968;2022-08-03T00:34:33;100962.63;;;30.28;38.24
18784;BME280;9520;50.954;6.968;2022-08-03T00:35:14;100958.91;;;30.29;38.43
18784;BME280;9520;50.954;6.968;2022-08-03T00:35:56;100960.59;;;30.30;38.38
18784;BME280;9520;50.954;6.968;2022-08-03T00:36:19;100956.19;;;30.29;38.46
18784;BME280;9520;50.954;6.968;2022-08-03T00:36:40;100952.72;;;30.27;38.19
18784;BME280;9520;50.954;6.968;2022-08-03T00:37:02;100956.31;;;30.27;38.40
18784;BME280;9520;50.954;6.968;2022-08-03T00:37:24;100956.19;;;30.29;38.12
18784;BME280;9520;50.954;6.968;2022-08-03T00:38:02;100959.91;;;30.28;38.31
18784;BME280;9520;50.954;6.968;2022-08-03T00:38:24;100945.00;;;30.22;38.57
18784;BME280;9520;50.954;6.968;2022-08-03T00:38:46;100956.44;;;30.26;38.46
18784;BME280;9520;50.954;6.968;2022-08-03T00:39:08;100962.75;;;30.26;38.71
18784;BME280;9520;50.954;6.968;2022-08-03T00:39:30;100954.59;;;30.26;38.48
18784;BME280;9520;50.954;6.968;2022-08-03T00:39:51;100954.88;;;30.23;38.49
18784;BME280;9520;50.954;6.968;2022-08-03T00:40:20;100962.06;;;30.24;38.16
18784;BME280;9520;50.954;6.968;2022-08-03T00:40:42;100964.59;;;30.26;38.41
18784;BME280;9520;50.954;6.968;2022-08-03T00:41:04;100963.63;;;30.27;38.46
18784;BME280;9520;50.954;6.968;2022-08-03T00:41:26;100948.84;;;30.20;38.65
18784;BME280;9520;50.954;6.968;2022-08-03T00:41:48;100936.81;;;30.13;38.39
18784;BME280;9520;50.954;6.968;2022-08-03T00:42:10;100950.13;;;30.16;38.39
18784;BME280;9520;50.954;6.968;2022-08-03T00:42:32;100955.59;;;30.16;38.37
18784;BME280;9520;50.954;6.968;2022-08-03T00:42:56;100940.09;;;30.07;38.43
18784;BME280;9520;50.954;6.968;2022-08-03T00:43:24;100951.00;;;30.16;38.57
18784;BME280;9520;50.954;6.968;2022-08-03T00:43:46;100958.91;;;30.19;38.81
18784;BME280;9520;50.954;6.968;2022-08-03T00:44:08;100960.88;;;30.17;38.42
18784;BME280;9520;50.954;6.968;2022-08-03T00:44:38;100957.31;;;30.17;38.68
18784;BME280;9520;50.954;6.968;2022-08-03T00:45:01;100945.41;;;30.08;38.78
18784;BME280;9520;50.954;6.968;2022-08-03T00:45:24;100957.72;;;30.12;38.76
18784;BME280;9520;50.954;6.968;2022-08-03T00:45:46;100957.31;;;30.17;38.48
18784;BME280;9520;50.954;6.968;2022-08-03T00:46:11;100961.88;;;30.16;38.23
18784;BME280;9520;50.954;6.968;2022-08-03T00:46:41;100958.16;;;30.17;38.55
18784;BME280;9520;50.954;6.968;2022-08-03T00:47:03;100957.72;;;30.12;38.80
18784;BME280;9520;50.954;6.968;2022-08-03T00:47:25;100961.88;;;30.16;38.96
18784;BME280;9520;50.954;6.968;2022-08-03T00:47:47;100947.72;;;30.13;38.63
18784;BME280;9520;50.954;6.968;2022-08-03T00:48:10;100958.31;;;30.16;38.74
18784;BME280;9520;50.954;6.968;2022-08-03T00:48:54;100960.03;;;30.17;38.36
18784;BME280;9520;50.954;6.968;2022-08-03T00:49:15;100959.16;;;30.16;38.57
18784;BME280;9520;50.954;6.968;2022-08-03T00:49:38;100958.31;;;30.16;38.58
18784;BME280;9520;50.954;6.968;2022-08-03T00:50:02;100950.00;;;30.08;38.55
18784;BME280;9520;50.954;6.968;2022-08-03T00:50:27;100956.56;;;30.15;38.59
18784;BME280;9520;50.954;6.968;2022-08-03T00:50:49;100961.19;;;30.14;38.32
18784;BME280;9520;50.954;6.968;2022-08-03T00:51:14;100950.69;;;30.10;38.30
18784;BME280;9520;50.954;6.968;2022-08-03T00:51:37;100963.91;;;30.14;38.52
18784;BME280;9520;50.954;6.968;2022-08-03T00:51:59;100955.75;;;30.14;38.49
18784;BME280;9520;50.954;6.968;2022-08-03T00:52:29;100961.88;;;30.16;38.61
18784;BME280;9520;50.954;6.968;2022-08-03T00:52:53;100960.88;;;30.17;38.76
18784;BME280;9520;50.954;6.968;2022-08-03T00:53:16;100961.19;;;30.14;38.72
18784;BME280;9520;50.954;6.968;2022-08-03T00:53:38;100954.88;;;30.14;38.75
18784;BME280;9520;50.954;6.968;2022-08-03T00:54:00;100954.72;;;30.15;38.55
18784;BME280;9520;50.954;6.968;2022-08-03T00:54:23;100962.31;;;30.12;38.59
18784;BME280;9520;50.954;6.968;2022-08-03T00:54:47;100959.47;;;30.13;38.64
18784;BME280;9520;50.954;6.968;2022-08-03T00:55:10;100961.31;;;30.13;38.66
18784;BME280;9520;50.954;6.968;2022-08-03T00:55:32;100953.72;;;30.07;38.87
18784;BME280;9520;50.954;6.968;2022-08-03T00:55:54;100949.13;;;30.07;39.02
18784;BME280;9520;50.954;6.968;2022-08-03T00:56:17;100960.44;;;30.12;39.23
18784;BME280;9520;50.954;6.968;2022-08-03T00:56:39;100961.59;;;30.10;38.97
18784;BME280;9520;50.954;6.968;2022-08-03T00:57:20;100953.84;;;30.05;39.48
18784;BME280;9520;50.954;6.968;2022-08-03T00:57:43;100953.72;;;30.07;39.36
18784;BME280;9520;50.954;6.968;2022-08-03T00:58:06;100957.59;;;30.04;39.43
18784;BME280;9520;50.954;6.968;2022-08-03T00:58:28;100954.13;;;30.02;38.99
18784;BME280;9520;50.954;6.968;2022-08-03T00:58:50;100956.72;;;30.03;39.04
18784;BME280;9520;50.954;6.968;2022-08-03T00:59:14;100955.00;;;30.02;39.17
18784;BME280;9520;50.954;6.968;2022-08-03T00:59:38;100963.16;;;30.02;39.22
18784;BME280;9520;50.954;6.968;2022-08-03T01:00:00;100950.84;;;29.98;39.50
18784;BME280;9520;50.954;6.968;2022-08-03T01:00:23;100958.84;;;30.00;39.26
18784;BME280;9520;50.954;6.968;2022-08-03T01:00:47;100954.28;;;30.00;39.02
18784;BME280;9520;50.954;6.968;2022-08-03T01:01:09;100956.13;;;30.00;39.08
18784;BME280;9520;50.954;6.968;2022-08-03T01:01:33;100954.56;;;29.97;39.19
18784;BME280;9520;50.954;6.968;2022-08-03T01:01:54;100961.00;;;29.96;39.15
18784;BME280;9520;50.954;6.968;2022-08-03T01:02:16;100960.00;;;29.97;39.17
18784;BME280;9520;50.954;6.968;2022-08-03T01:02:39;100953.72;;;29.97;39.27
18784;BME280;9520;50.954;6.968;2022-08-03T01:03:02;100954.88;;;29.94;38.95
18784;BME280;9520;50.954;6.968;2022-08-03T01:03:23;100953.13;;;29.93;38.89
18784;BME280;9520;50.954;6.968;2022-08-03T01:03:45;100939.50;;;29.84;38.91
18784;BME280;9520;50.954;6.968;2022-08-03T01:04:08;100913.69;;;29.69;39.02
18784;BME280;9520;50.954;6.968;2022-08-03T01:04:30;100946.97;;;29.91;38.96
18784;BME280;9520;50.954;6.968;2022-08-03T01:04:51;100952.28;;;29.93;38.95
18784;BME280;9520;50.954;6.968;2022-08-03T01:05:13;100950.97;;;29.97;39.00
18784;BME280;9520;50.954;6.968;2022-08-03T01:05:40;100953.72;;;29.97;38.77
18784;BME280;9520;50.954;6.968;2022-08-03T01:06:11;100940.91;;;29.88;38.81
18784;BME280;9520;50.954;6.968;2022-08-03T01:06:44;100952.72;;;29.98;39.05
18784;BME280;9520;50.954;6.968;2022-08-03T01:07:13;100956.28;;;29.98;39.49
18784;BME280;9520;50.954;6.968;2022-08-03T01:07:45;100957.16;;;29.99;39.42
18784;BME280;9520;50.954;6.968;2022-08-03T01:08:18;100957.72;;;29.93;39.16
18784;BME280;9520;50.954;6.968;2022-08-03T01:08:47;100944.38;;;29.90;39.21
18784;BME280;9520;50.954;6.968;2022-08-03T01:09:20;100948.56;;;29.94;38.96
18784;BME280;9520;50.954;6.968;2022-08-03T01:09:49;100953.13;;;29.93;38.94
18784;BME280;9520;50.954;6.968;2022-08-03T01:10:20;100949.69;;;29.91;39.13
18784;BME280;9520;50.954;6.968;2022-08-03T01:10:53;100947.97;;;29.90;38.77
18784;BME280;9520;50.954;6.968;2022-08-03T01:11:27;100948.81;;;29.91;38.87
18784;BME280;9520;50.954;6.968;2022-08-03T01:11:58;100952.66;;;29.88;39.29
18784;BME280;9520;50.954;6.968;2022-08-03T01:12:27;100938.75;;;29.82;39.19
18784;BME280;9520;50.954;6.968;2022-08-03T01:12:56;100948.97;;;29.89;38.79
18784;BME280;9520;50.954;6.968;2022-08-03T01:13:23;100954.41;;;29.89;38.75
18784;BME280;9520;50.954;6.968;2022-08-03T01:14:10;100949.94;;;29.88;38.79
18784;BME280;9520;50.954;6.968;2022-08-03T01:14:47;100951.28;;;29.94;38.83
18784;BME280;9520;50.954;6.968;2022-08-03T01:15:14;100958.72;;;29.92;38.78
18784;BME280;9520;50.954;6.968;2022-08-03T01:15:42;100957.16;;;29.89;38.80
18784;BME280;9520;50.954;6.968;2022-08-03T01:16:09;100951.06;;;29.86;38.88
18784;BME280;9520;50.954;6.968;2022-08-03T01:16:37;100951.94;;;29.86;38.68
18784;BME280;9520;50.954;6.968;2022-08-03T01:17:14;100949.22;;;29.86;38.60
18784;BME280;9520;50.954;6.968;2022-08-03T01:17:43;100959.97;;;29.88;38.68
18784;BME280;9520;50.954;6.968;2022-08-03T01:18:13;100953.66;;;29.87;38.92
18784;BME280;9520;50.954;6.968;2022-08-03T01:18:38;100951.72;;;29.89;38.58
18784;BME280;9520;50.954;6.968;2022-08-03T01:19:15;100950.94;;;29.87;38.81
18784;BME280;9520;50.954;6.968;2022-08-03T01:19:47;100942.03;;;29.85;38.47
18784;BME280;9520;50.954;6.968;2022-08-03T01:20:12;100956.28;;;29.89;38.56
18784;BME280;9520;50.954;6.968;2022-08-03T01:20:37;100949.09;;;29.88;38.51
18784;BME280;9520;50.954;6.968;2022-08-03T01:21:05;100944.50;;;29.88;38.67
18784;BME280;9520;50.954;6.968;2022-08-03T01:21:33;100952.94;;;29.85;38.74
18784;BME280;9520;50.954;6.968;2022-08-03T01:22:10;100951.06;;;29.86;38.63
18784;BME280;9520;50.954;6.968;2022-08-03T01:22:55;100932.44;;;29.72;38.59
18784;BME280;9520;50.954;6.968;2022-08-03T01:23:34;100933.00;;;29.75;38.71
18784;BME280;9520;50.954;6.968;2022-08-03T01:24:19;100949.63;;;29.82;38.62
18784;BME280;9520;50.954;6.968;2022-08-03T01:24:49;100948.78;;;29.81;38.87
18784;BME280;9520;50.954;6.968;2022-08-03T01:25:27;100948.94;;;29.80;38.98
18784;BME280;9520;50.954;6.968;2022-08-03T01:26:04;100946.59;;;29.75;39.09
18784;BME280;9520;50.954;6.968;2022-08-03T01:26:48;100946.47;;;29.77;39.25
18784;BME280;9520;50.954;6.968;2022-08-03T01:27:18;100948.34;;;29.76;39.01
18784;BME280;9520;50.954;6.968;2022-08-03T01:27:50;100962.66;;;29.78;38.89
18784;BME280;9520;50.954;6.968;2022-08-03T01:28:28;100961.94;;;29.76;38.86
18784;BME280;9520;50.954;6.968;2022-08-03T01:29:03;100953.06;;;29.74;39.06
18784;BME280;9520;50.954;6.968;2022-08-03T01:29:40;100948.19;;;29.78;38.81
18784;BME280;9520;50.954;6.968;2022-08-03T01:30:07;100943.63;;;29.78;38.82
18784;BME280;9520;50.954;6.968;2022-08-03T01:30:30;100947.03;;;29.80;38.67
18784;BME280;9520;50.954;6.968;2022-08-03T01:30:55;100949.94;;;29.79;39.12
18784;BME280;9520;50.954;6.968;2022-08-03T01:31:22;100950.06;;;29.77;39.08
18784;BME280;9520;50.954;6.968;2022-08-03T01:31:52;100958.09;;;29.79;39.12
18784;BME280;9520;50.954;6.968;2022-08-03T01:32:41;100953.06;;;29.74;39.14
18784;BME280;9520;50.954;6.968;2022-08-03T01:33:23;100952.22;;;29.74;39.22
18784;BME280;9520;50.954;6.968;2022-08-03T01:33:50;100952.22;;;29.74;39.04
18784;BME280;9520;50.954;6.968;2022-08-03T01:34:14;100949.31;;;29.75;39.02
18784;BME280;9520;50.954;6.968;2022-08-03T01:34:41;100953.78;;;29.76;39.20
18784;BME280;9520;50.954;6.968;2022-08-03T01:35:08;100952.03;;;29.75;38.90
18784;BME280;9520;50.954;6.968;2022-08-03T01:35:32;100947.63;;;29.74;39.11
18784;BME280;9520;50.954;6.968;2022-08-03T01:36:02;100895.00;;;29.35;39.02
18784;BME280;9520;50.954;6.968;2022-08-03T01:36:30;100955.19;;;29.71;39.00
18784;BME280;9520;50.954;6.968;2022-08-03T01:36:55;100946.00;;;29.62;39.30
18784;BME280;9520;50.954;6.968;2022-08-03T01:37:21;100950.16;;;29.66;39.18
18784;BME280;9520;50.954;6.968;2022-08-03T01:37:49;100944.72;;;29.66;39.21
18784;BME280;9520;50.954;6.968;2022-08-03T01:38:17;100950.91;;;29.68;39.05
18784;BME280;9520;50.954;6.968;2022-08-03T01:38:44;100953.63;;;29.68;39.39
18784;BME280;9520;50.954;6.968;2022-08-03T01:39:08;100952.63;;;29.69;39.26
18784;BME280;9520;50.954;6.968;2022-08-03T01:39:32;100949.03;;;29.69;39.04
18784;BME280;9520;50.954;6.968;2022-08-03T01:39:55;100945.16;;;29.61;39.25
18784;BME280;9520;50.954;6.968;2022-08-03T01:40:19;100949.75;;;29.71;39.17
18784;BME280;9520;50.954;6.968;2022-08-03T01:40:43;100957.03;;;29.70;39.13
18784;BME280;9520;50.954;6.968;2022-08-03T01:41:11;100955.19;;;29.71;39.24
18784;BME280;9520;50.954;6.968;2022-08-03T01:41:36;100955.34;;;29.69;39.32
18784;BME280;9520;50.954;6.968;2022-08-03T01:42:01;100951.03;;;29.67;39.01
18784;BME280;9520;50.954;6.968;2022-08-03T01:42:28;100943.03;;;29.65;39.17
18784;BME280;9520;50.954;6.968;2022-08-03T01:42:53;100948.47;;;29.65;39.23
18784;BME280;9520;50.954;6.968;2022-08-03T01:43:18;100948.47;;;29.65;39.26
18784;BME280;9520;50.954;6.968;2022-08-03T01:44:03;100947.72;;;29.63;39.25
18784;BME280;9520;50.954;6.968;2022-08-03T01:44:50;100946.00;;;29.62;39.30
18784;BME280;9520;50.954;6.968;2022-08-03T01:45:14;100945.88;;;29.64;39.23
18784;BME280;9520;50.954;6.968;2022-08-03T01:45:39;100944.03;;;29.64;39.57
18784;BME280;9520;50.954;6.968;2022-08-03T01:46:03;100951.31;;;29.64;39.35
18784;BME280;9520;50.954;6.968;2022-08-03T01:46:26;100955.91;;;29.63;39.22
18784;BME280;9520;50.954;6.968;2022-08-03T01:46:49;100959.34;;;29.65;39.49
18784;BME280;9520;50.954;6.968;2022-08-03T01:47:12;100948.03;;;29.60;39.37
18784;BME280;9520;50.954;6.968;2022-08-03T01:47:34;100948.59;;;29.64;39.23
18784;BME280;9520;50.954;6.968;2022-08-03T01:47:58;100945.16;;;29.61;39.14
18784;BME280;9520;50.954;6.968;2022-08-03T01:48:21;100944.69;;;29.56;39.13
18784;BME280;9520;50.954;6.968;2022-08-03T01:48:45;100952.44;;;29.61;39.23
18784;BME280;9520;50.954;6.968;2022-08-03T01:49:10;100944.28;;;29.61;39.18
18784;BME280;9520;50.954;6.968;2022-08-03T01:49:36;100944.28;;;29.61;39.25
18784;BME280;9520;50.954;6.968;2022-08-03T01:50:00;100948.16;;;29.58;39.23
18784;BME280;9520;50.954;6.968;2022-08-03T01:50:29;100956.19;;;29.60;39.40
18784;BME280;9520;50.954;6.968;2022-08-03T01:50:55;100950.31;;;29.55;39.60
18784;BME280;9520;50.954;6.968;2022-08-03T01:51:18;100950.31;;;29.55;39.42
18784;BME280;9520;50.954;6.968;2022-08-03T01:51:41;100946.56;;;29.56;39.34
18784;BME280;9520;50.954;6.968;2022-08-03T01:52:23;100947.59;;;29.55;39.23
18784;BME280;9520;50.954;6.968;2022-08-03T01:52:47;100936.06;;;29.42;39.37
18784;BME280;9520;50.954;6.968;2022-08-03T01:53:12;100948.56;;;29.54;39.35
18784;BME280;9520;50.954;6.968;2022-08-03T01:53:35;100944.13;;;29.53;39.47
18784;BME280;9520;50.954;6.968;2022-08-03T01:53:59;100946.84;;;29.53;39.46
18784;BME280;9520;50.954;6.968;2022-08-03T01:54:23;100944.13;;;29.53;39.39
18784;BME280;9520;50.954;6.968;2022-08-03T01:54:48;100950.56;;;29.52;39.67
18784;BME280;9520;50.954;6.968;2022-08-03T01:55:12;100946.97;;;29.51;39.45
18784;BME280;9520;50.954;6.968;2022-08-03T01:55:36;100947.84;;;29.52;39.33
18784;BME280;9520;50.954;6.968;2022-08-03T01:56:01;100952.28;;;29.53;39.40
18784;BME280;9520;50.954;6.968;2022-08-03T01:56:24;100940.66;;;29.51;39.43
18784;BME280;9520;50.954;6.968;2022-08-03T01:56:48;100947.13;;;29.50;39.52
18784;BME280;9520;50.954;6.968;2022-08-03T01:57:12;100947.72;;;29.53;39.50
18784;BME280;9520;50.954;6.968;2022-08-03T01:57:37;100943.25;;;29.52;39.35
18784;BME280;9520;50.954;6.968;2022-08-03T01:58:20;100941.28;;;29.54;39.51
18784;BME280;9520;50.954;6.968;2022-08-03T01:58:47;100948.69;;;29.52;39.42
18784;BME280;9520;50.954;6.968;2022-08-03T01:59:11;100945.53;;;29.47;39.18
18784;BME280;9520;50.954;6.968;2022-08-03T01:59:36;100952.25;;;29.43;39.19
18784;BME280;9520;50.954;6.968;2022-08-03T02:00:03;100941.25;;;29.45;39.36
18784;BME280;9520;50.954;6.968;2022-08-03T02:00:32;100937.06;;;29.41;39.53
18784;BME280;9520;50.954;6.968;2022-08-03T02:00:56;100947.41;;;29.47;39.64
18784;BME280;9520;50.954;6.968;2022-08-03T02:01:20;100923.44;;;29.31;39.47
18784;BME280;9520;50.954;6.968;2022-08-03T02:01:43;100948.25;;;29.47;39.52
18784;BME280;9520;50.954;6.968;2022-08-03T02:02:26;100945.66;;;29.46;39.55
18784;BME280;9520;50.954;6.968;2022-08-03T02:02:55;100953.25;;;29.42;39.85
18784;BME280;9520;50.954;6.968;2022-08-03T02:03:19;100946.25;;;29.40;39.62
18784;BME280;9520;50.954;6.968;2022-08-03T02:03:43;100940.50;;;29.43;39.78
18784;BME280;9520;50.954;6.968;2022-08-03T02:04:21;100944.09;;;29.43;39.86
18784;BME280;9520;50.954;6.968;2022-08-03T02:04:46;100944.97;;;29.44;40.00
18784;BME280;9520;50.954;6.968;2022-08-03T02:05:10;100943.38;;;29.41;39.73
18784;BME280;9520;50.954;6.968;2022-08-03T02:05:33;100939.78;;;29.41;39.65
18784;BME280;9520;50.954;6.968;2022-08-03T02:05:56;100935.50;;;29.38;39.49
18784;BME280;9520;50.954;6.968;2022-08-03T02:06:40;100940.06;;;29.38;39.65
18784;BME280;9520;50.954;6.968;2022-08-03T02:07:23;100938.09;;;29.40;39.72
18784;BME280;9520;50.954;6.968;2022-08-03T02:07:47;100936.06;;;29.42;39.81
18784;BME280;9520;50.954;6.968;2022-08-03T02:08:12;100930.19;;;29.37;39.55
18784;BME280;9520;50.954;6.968;2022-08-03T02:08:34;100937.94;;;29.41;39.81
18784;BME280;9520;50.954;6.968;2022-08-03T02:08:58;100936.22;;;29.40;39.76
18784;BME280;9520;50.954;6.968;2022-08-03T02:09:22;100932.03;;;29.36;39.49
18784;BME280;9520;50.954;6.968;2022-08-03T02:09:46;100945.78;;;29.35;39.60
18784;BME280;9520;50.954;6.968;2022-08-03T02:10:12;100933.06;;;29.35;39.62
18784;BME280;9520;50.954;6.968;2022-08-03T02:10:35;100940.19;;;29.36;39.55
18784;BME280;9520;50.954;6.968;2022-08-03T02:11:01;100936.78;;;29.34;39.54
18784;BME280;9520;50.954;6.968;2022-08-03T02:11:23;100938.50;;;29.35;39.77
18784;BME280;9520;50.954;6.968;2022-08-03T02:11:45;100935.44;;;29.29;39.82
18784;BME280;9520;50.954;6.968;2022-08-03T02:12:08;100942.13;;;29.25;39.70
18784;BME280;9520;50.954;6.968;2022-08-03T02:12:32;100943.88;;;29.26;39.63
18784;BME280;9520;50.954;6.968;2022-08-03T02:12:56;100932.25;;;29.24;39.81
18784;BME280;9520;50.954;6.968;2022-08-03T02:13:21;100937.69;;;29.24;39.92
18784;BME280;9520;50.954;6.968;2022-08-03T02:13:45;100942.25;;;29.23;40.03
18784;BME280;9520;50.954;6.968;2022-08-03T02:14:09;100938.56;;;29.24;40.02
18784;BME280;9520;50.954;6.968;2022-08-03T02:14:32;100936.72;;;29.25;39.91
18784;BME280;9520;50.954;6.968;2022-08-03T02:14:56;100928.81;;;29.22;40.04
18784;BME280;9520;50.954;6.968;2022-08-03T02:15:23;100943.41;;;29.21;40.16
18784;BME280;9520;50.954;6.968;2022-08-03T02:15:47;100937.81;;;29.22;40.25
18784;BME280;9520;50.954;6.968;2022-08-03T02:16:10;100941.41;;;29.23;40.17
18784;BME280;9520;50.954;6.968;2022-08-03T02:16:36;100939.41;;;29.25;40.41
18784;BME280;9520;50.954;6.968;2022-08-03T02:16:58;100941.16;;;29.26;40.29
18784;BME280;9520;50.954;6.968;2022-08-03T02:17:21;100941.97;;;29.26;40.24
18784;BME280;9520;50.954;6.968;2022-08-03T02:18:02;100939.53;;;29.23;40.34
18784;BME280;9520;50.954;6.968;2022-08-03T02:18:26;100940.53;;;29.22;40.43
18784;BME280;9520;50.954;6.968;2022-08-03T02:18:50;100944.84;;;29.25;40.41